Temperatur und Luftfeuchte

Temperatur und Luftfeuchte

Die letzten 100 Messwerte

Nummer Datum und Zeit Sensor ID Temperatur in Celsius gef├╝hlte Temperatur Luftfeuchte in %
78049 2022-12-09 14:26:22 Bahnzimmer 18.90 18.04 45.70
78048 2022-12-09 14:13:51 Terrasse 5.70 4.00 64.20
78047 2022-12-09 13:56:21 Bahnzimmer 19.10 18.26 45.60
78046 2022-12-09 13:26:21 Bahnzimmer 19.10 18.25 45.50
78045 2022-12-09 13:15:04 Terrasse 4.20 2.51 70.10
78044 2022-12-09 12:56:20 Bahnzimmer 18.60 17.69 45.00
78043 2022-12-09 12:46:48 Terrasse 3.70 1.98 71.20
78042 2022-12-09 12:26:20 Bahnzimmer 18.70 17.79 44.60
78041 2022-12-09 12:18:40 Terrasse 4.50 2.86 71.10
78040 2022-12-09 11:56:19 Bahnzimmer 18.90 18.05 46.10
78039 2022-12-09 11:50:25 Terrasse 3.00 1.32 75.20
78038 2022-12-09 11:26:18 Bahnzimmer 18.80 17.94 46.30
78037 2022-12-09 11:22:03 Terrasse 2.00 0.30 78.30
78036 2022-12-09 10:56:18 Bahnzimmer 19.00 18.16 46.20
78035 2022-12-09 10:53:49 Terrasse 1.80 0.08 78.20
78034 2022-12-09 10:26:17 Bahnzimmer 19.10 18.27 46.30
78033 2022-12-09 10:25:33 Terrasse 1.70 0.00 79.40
78032 2022-12-09 09:57:19 Terrasse 1.10 -0.62 81.00
78031 2022-12-09 09:56:16 Bahnzimmer 19.00 18.16 46.20
78030 2022-12-09 09:29:06 Terrasse 1.00 -0.73 81.10
78029 2022-12-09 09:26:16 Bahnzimmer 19.00 18.15 45.90
78028 2022-12-09 09:00:55 Terrasse 1.10 -0.61 81.50
78027 2022-12-09 08:56:15 Bahnzimmer 19.20 18.38 46.10
78026 2022-12-09 08:32:43 Terrasse 1.20 -0.48 82.00
78025 2022-12-09 08:26:14 Bahnzimmer 19.00 18.15 45.90
78024 2022-12-09 08:04:31 Terrasse 1.20 -0.49 81.90
78023 2022-12-09 07:56:14 Bahnzimmer 18.90 18.03 45.50
78022 2022-12-09 07:36:18 Terrasse 1.10 -0.58 82.70
78021 2022-12-09 07:26:13 Bahnzimmer 18.90 18.04 45.70
78020 2022-12-09 07:08:10 Terrasse 1.10 -0.58 82.40
78019 2022-12-09 06:56:12 Bahnzimmer 19.00 18.14 45.50
78018 2022-12-09 06:39:56 Terrasse 1.10 -0.60 81.80
78017 2022-12-09 06:26:12 Bahnzimmer 18.90 18.04 45.70
78016 2022-12-09 06:11:43 Terrasse 1.00 -0.73 81.00
78015 2022-12-09 05:56:11 Bahnzimmer 19.00 18.14 45.50
78014 2022-12-09 05:43:30 Terrasse 1.20 -0.50 81.20
78013 2022-12-09 05:26:10 Bahnzimmer 19.10 18.25 45.40
78012 2022-12-09 05:15:17 Terrasse 1.00 -0.70 82.00
78011 2022-12-09 04:56:10 Bahnzimmer 18.80 17.92 45.50
78010 2022-12-09 04:47:07 Terrasse 1.20 -0.49 81.70
78009 2022-12-09 04:26:09 Bahnzimmer 18.70 17.82 45.60
78008 2022-12-09 04:18:53 Terrasse 1.00 -0.70 82.20
78007 2022-12-09 03:56:08 Bahnzimmer 18.70 17.82 45.70
78006 2022-12-09 03:50:42 Terrasse 1.10 -0.61 81.50
78005 2022-12-09 03:26:08 Bahnzimmer 18.70 17.82 45.60
78004 2022-12-09 03:22:30 Terrasse 1.10 -0.58 82.50
78003 2022-12-09 02:56:07 Bahnzimmer 18.80 17.93 45.60
78002 2022-12-09 02:54:17 Terrasse 1.10 -0.57 82.90
78001 2022-12-09 02:26:06 Bahnzimmer 18.70 17.82 45.70
78000 2022-12-09 02:26:03 Terrasse 1.10 -0.58 82.50
77999 2022-12-09 01:57:50 Terrasse 1.20 -0.45 83.10
77998 2022-12-09 01:56:06 Bahnzimmer 18.70 17.82 45.60
77997 2022-12-09 01:29:39 Terrasse 1.10 -0.57 82.80
77996 2022-12-09 01:26:05 Bahnzimmer 18.70 17.81 45.50
77995 2022-12-09 01:01:25 Terrasse 1.30 -0.36 82.60
77994 2022-12-09 00:56:04 Bahnzimmer 18.60 17.70 45.50
77993 2022-12-09 00:33:13 Terrasse 1.10 -0.58 82.70
77992 2022-12-09 00:26:04 Bahnzimmer 18.70 17.81 45.20
77991 2022-12-09 00:05:01 Terrasse 1.30 -0.36 82.50
77990 2022-12-08 23:56:03 Bahnzimmer 18.70 17.81 45.50
77989 2022-12-08 23:36:49 Terrasse 1.30 -0.36 82.60
77988 2022-12-08 23:26:02 Bahnzimmer 18.90 18.03 45.40
77987 2022-12-08 23:08:36 Terrasse 1.40 -0.26 82.00
77986 2022-12-08 22:56:02 Bahnzimmer 19.00 18.14 45.30
77985 2022-12-08 22:40:23 Terrasse 1.50 -0.15 82.20
77984 2022-12-08 22:26:01 Bahnzimmer 19.00 18.14 45.20
77983 2022-12-08 22:12:12 Terrasse 1.50 -0.18 81.00
77982 2022-12-08 21:56:00 Bahnzimmer 19.00 18.13 45.10
77981 2022-12-08 21:43:58 Terrasse 1.60 -0.04 82.30
77980 2022-12-08 21:26:00 Bahnzimmer 19.00 18.13 45.00
77979 2022-12-08 21:15:46 Terrasse 1.50 -0.18 81.10
77978 2022-12-08 20:55:59 Bahnzimmer 19.00 18.13 44.90
77977 2022-12-08 20:47:34 Terrasse 1.50 -0.16 81.80
77976 2022-12-08 20:25:58 Bahnzimmer 19.00 18.12 44.70
77975 2022-12-08 20:19:21 Terrasse 1.60 -0.05 81.80
77974 2022-12-08 19:55:58 Bahnzimmer 19.10 18.23 44.50
77973 2022-12-08 19:51:09 Terrasse 1.70 0.06 81.60
77972 2022-12-08 19:25:57 Bahnzimmer 19.20 18.32 44.00
77971 2022-12-08 19:22:57 Terrasse 1.70 0.01 80.00
77970 2022-12-08 18:55:57 Bahnzimmer 19.50 18.63 43.20
77969 2022-12-08 18:54:46 Terrasse 1.80 0.13 80.40
77968 2022-12-08 18:26:34 Terrasse 2.00 0.32 78.90
77967 2022-12-08 18:25:56 Bahnzimmer 18.50 17.50 41.90
77966 2022-12-08 17:58:22 Terrasse 2.20 0.55 79.30
77965 2022-12-08 17:55:55 Bahnzimmer 20.20 19.46 45.30
77964 2022-12-08 17:30:09 Terrasse 2.10 0.50 81.80
77963 2022-12-08 17:25:55 Bahnzimmer 20.30 19.57 45.40
77962 2022-12-08 17:01:56 Terrasse 2.20 0.59 81.10
77961 2022-12-08 16:55:54 Bahnzimmer 20.30 19.57 45.40
77960 2022-12-08 16:33:45 Terrasse 2.20 0.53 78.70
77959 2022-12-08 16:25:53 Bahnzimmer 20.10 19.34 45.10
77958 2022-12-08 16:05:32 Terrasse 2.40 0.74 78.40
77957 2022-12-08 15:55:53 Bahnzimmer 19.90 19.10 44.20
77956 2022-12-08 15:37:21 Terrasse 2.70 1.08 78.70
77955 2022-12-08 15:25:52 Bahnzimmer 18.50 17.51 42.30
77954 2022-12-08 15:09:10 Terrasse 3.00 1.39 78.10
77953 2022-12-08 14:55:51 Bahnzimmer 20.00 19.27 46.60
77952 2022-12-08 14:40:58 Terrasse 3.10 1.53 79.00
77951 2022-12-08 14:25:51 Bahnzimmer 19.90 19.15 46.30
77950 2022-12-08 14:12:46 Terrasse 3.00 1.43 79.50